createdAt,value
2019-03-27T21:02:20.398Z,21.30
2019-03-27T21:06:25.106Z,21.30
2019-03-27T21:10:29.673Z,21.30
2019-03-27T21:14:34.213Z,21.40
2019-03-27T21:18:38.752Z,21.40
2019-03-27T21:22:43.271Z,21.40
2019-03-27T21:26:47.806Z,21.50
2019-03-27T21:30:52.337Z,21.50
2019-03-27T21:34:56.873Z,21.50
2019-03-27T21:39:01.413Z,21.50
2019-03-27T21:43:05.922Z,21.50
2019-03-27T21:47:10.529Z,21.50
2019-03-27T21:51:15.093Z,21.40
2019-03-27T21:55:22.787Z,21.40
2019-03-27T21:59:25.087Z,21.40
2019-03-27T22:03:29.529Z,21.40
2019-03-27T22:07:34.093Z,21.40
2019-03-27T22:11:38.678Z,21.30
2019-03-27T22:15:43.222Z,21.10
2019-03-27T22:19:47.766Z,19.90
2019-03-27T22:23:52.373Z,19.10
2019-03-27T22:27:57.054Z,19.20
2019-03-27T22:32:02.989Z,19.40
2019-03-27T22:36:07.775Z,19.60
2019-03-27T22:40:13.198Z,19.70
2019-03-27T22:44:18.450Z,19.80
2019-03-27T22:48:23.050Z,19.80
2019-03-27T22:52:27.626Z,19.80
2019-03-27T22:56:32.201Z,19.80
2019-03-27T23:00:49.859Z,19.80
2019-03-27T23:04:54.581Z,19.70
2019-03-27T23:08:59.193Z,19.70
2019-03-27T23:13:03.810Z,19.70
2019-03-27T23:17:08.337Z,19.60
2019-03-27T23:21:12.893Z,19.60
2019-03-27T23:25:17.446Z,19.60
2019-03-27T23:29:22.072Z,19.50
2019-03-27T23:33:26.594Z,19.50
2019-03-27T23:37:31.134Z,19.50
2019-03-27T23:41:35.677Z,19.40
2019-03-27T23:45:40.217Z,19.40
2019-03-27T23:49:44.749Z,19.40
2019-03-27T23:53:49.269Z,19.30
2019-03-27T23:57:53.877Z,19.30
